Webcam Flughafen St.Gallen-Altenrhein

Live-Bilder und Zeitraffer LSZR / ACH.

 

Live aus Altenrhein
LIVE
LSZR 281220Z 27008KT 9999 SCT040 BKN055 13/08 Q1017 NOSIG RMK I
Zeitraffer heute
2020-10-28 00:14:48
LSZR 272250Z AUTO VRB03KT CAVOK 07/05 Q1014